sensor_id;sensor_type;location;lat;lon;timestamp;pressure;altitude;pressure_sealevel;temperature;humidity
23172;BME280;11754;42.664;23.594;2023-02-12T00:01:14;96398.66;;;-0.31;49.42
23172;BME280;11754;42.664;23.594;2023-02-12T00:03:56;96395.91;;;-0.28;49.56
23172;BME280;11754;42.664;23.594;2023-02-12T00:06:22;96398.38;;;-0.25;49.56
23172;BME280;11754;42.664;23.594;2023-02-12T00:08:49;96399.09;;;-0.22;49.45
23172;BME280;11754;42.664;23.594;2023-02-12T00:11:17;96401.63;;;-0.21;49.25
23172;BME280;11754;42.664;23.594;2023-02-12T00:13:43;96401.63;;;-0.21;49.54
23172;BME280;11754;42.664;23.594;2023-02-12T00:57:01;96370.88;;;-0.11;50.31
23172;BME280;11754;42.664;23.594;2023-02-12T00:59:26;96363.84;;;-0.09;49.78
23172;BME280;11754;42.664;23.594;2023-02-12T01:01:53;96357.75;;;-0.08;50.14
23172;BME280;11754;42.664;23.594;2023-02-12T01:04:19;96356.06;;;-0.09;49.68
23172;BME280;11754;42.664;23.594;2023-02-12T01:10:07;96349.22;;;-0.10;50.10
23172;BME280;11754;42.664;23.594;2023-02-12T01:12:32;96353.63;;;-0.12;50.51
23172;BME280;11754;42.664;23.594;2023-02-12T01:14:58;96357.91;;;-0.11;50.42
23172;BME280;11754;42.664;23.594;2023-02-12T01:17:23;96353.63;;;-0.12;50.31
23172;BME280;11754;42.664;23.594;2023-02-12T01:19:49;96359.44;;;-0.07;50.46
23172;BME280;11754;42.664;23.594;2023-02-12T01:22:14;96366.88;;;-0.01;50.42
23172;BME280;11754;42.664;23.594;2023-02-12T01:28:01;96378.63;;;0.06;50.28
23172;BME280;11754;42.664;23.594;2023-02-12T01:30:27;96365.50;;;0.09;50.32
23172;BME280;11754;42.664;23.594;2023-02-12T01:32:52;96352.38;;;0.12;50.24
23172;BME280;11754;42.664;23.594;2023-02-12T01:35:19;96359.75;;;0.20;50.12
23172;BME280;11754;42.664;23.594;2023-02-12T01:37:44;96356.06;;;0.24;50.15
23172;BME280;11754;42.664;23.594;2023-02-12T01:40:13;96350.22;;;0.36;49.61
23172;BME280;11754;42.664;23.594;2023-02-12T01:42:40;96342.19;;;0.41;49.87
23172;BME280;11754;42.664;23.594;2023-02-12T01:47:38;96341.50;;;0.53;49.43
23172;BME280;11754;42.664;23.594;2023-02-12T01:50:09;96337.66;;;0.60;49.61
23172;BME280;11754;42.664;23.594;2023-02-12T01:52:37;96329.13;;;0.58;49.35
23172;BME280;11754;42.664;23.594;2023-02-12T01:55:06;96326.28;;;0.63;49.59
23172;BME280;11754;42.664;23.594;2023-02-12T01:57:38;96320.66;;;0.70;49.46
23172;BME280;11754;42.664;23.594;2023-02-12T02:00:08;96310.09;;;0.74;49.26
23172;BME280;11754;42.664;23.594;2023-02-12T02:09:13;96306.59;;;0.59;49.40
23172;BME280;11754;42.664;23.594;2023-02-12T02:11:40;96314.28;;;0.60;49.47
23172;BME280;11754;42.664;23.594;2023-02-12T02:14:23;96317.41;;;0.51;49.42
23172;BME280;11754;42.664;23.594;2023-02-12T02:30:25;96329.44;;;0.20;49.97
23172;BME280;11754;42.664;23.594;2023-02-12T02:40:42;96333.47;;;0.26;50.34
23172;BME280;11754;42.664;23.594;2023-02-12T02:43:20;96335.28;;;0.24;50.19
23172;BME280;11754;42.664;23.594;2023-02-12T02:45:51;96326.78;;;0.22;50.48
23172;BME280;11754;42.664;23.594;2023-02-12T03:08:33;96341.19;;;0.43;50.44
23172;BME280;11754;42.664;23.594;2023-02-12T03:11:29;96340.50;;;0.56;50.68
23172;BME280;11754;42.664;23.594;2023-02-12T03:14:08;96336.72;;;0.61;50.33
23172;BME280;11754;42.664;23.594;2023-02-12T03:17:07;96340.50;;;0.71;49.85
23172;BME280;11754;42.664;23.594;2023-02-12T03:39:55;96322.50;;;1.14;49.74
23172;BME280;11754;42.664;23.594;2023-02-12T03:42:36;96315.09;;;1.23;49.76
23172;BME280;11754;42.664;23.594;2023-02-12T03:45:21;96329.00;;;1.22;49.71
23172;BME280;11754;42.664;23.594;2023-02-12T03:48:07;96333.88;;;1.28;49.81
23172;BME280;11754;42.664;23.594;2023-02-12T03:53:05;96332.31;;;1.39;48.96
23172;BME280;11754;42.664;23.594;2023-02-12T03:55:31;96323.22;;;1.47;48.77
23172;BME280;11754;42.664;23.594;2023-02-12T03:58:00;96316.66;;;1.55;48.77
23172;BME280;11754;42.664;23.594;2023-02-12T04:00:27;96321.47;;;1.61;48.63
23172;BME280;11754;42.664;23.594;2023-02-12T04:02:53;96320.31;;;1.67;48.50
23172;BME280;11754;42.664;23.594;2023-02-12T04:05:26;96320.00;;;1.72;48.44
23172;BME280;11754;42.664;23.594;2023-02-12T04:07:53;96307.78;;;1.74;48.31
23172;BME280;11754;42.664;23.594;2023-02-12T04:10:26;96311.47;;;1.84;48.53
23172;BME280;11754;42.664;23.594;2023-02-12T04:13:00;96321.97;;;1.82;48.40
23172;BME280;11754;42.664;23.594;2023-02-12T04:18:27;96316.88;;;1.95;48.11
23172;BME280;11754;42.664;23.594;2023-02-12T04:29:59;96332.75;;;2.05;47.65
23172;BME280;11754;42.664;23.594;2023-02-12T04:32:58;96324.13;;;2.04;47.94
23172;BME280;11754;42.664;23.594;2023-02-12T04:35:49;96325.59;;;2.08;47.56
23172;BME280;11754;42.664;23.594;2023-02-12T04:38:22;96327.66;;;2.03;47.67
23172;BME280;11754;42.664;23.594;2023-02-12T04:40:48;96338.72;;;2.07;47.63
23172;BME280;11754;42.664;23.594;2023-02-12T04:43:14;96336.19;;;2.05;47.34
23172;BME280;11754;42.664;23.594;2023-02-12T04:45:39;96334.34;;;2.07;47.27
23172;BME280;11754;42.664;23.594;2023-02-12T04:48:05;96329.69;;;2.12;46.97
23172;BME280;11754;42.664;23.594;2023-02-12T04:50:42;96332.75;;;2.19;46.92
23172;BME280;11754;42.664;23.594;2023-02-12T04:53:08;96338.72;;;2.07;47.26
23172;BME280;11754;42.664;23.594;2023-02-12T04:55:37;96330.63;;;1.97;47.26
23172;BME280;11754;42.664;23.594;2023-02-12T04:58:02;96322.44;;;1.75;47.84
23172;BME280;11754;42.664;23.594;2023-02-12T05:00:28;96320.78;;;1.74;47.95
23172;BME280;11754;42.664;23.594;2023-02-12T05:02:53;96325.38;;;1.54;48.63
23172;BME280;11754;42.664;23.594;2023-02-12T05:05:18;96324.34;;;1.42;49.46
23172;BME280;11754;42.664;23.594;2023-02-12T05:07:44;96322.41;;;1.46;49.13
23172;BME280;11754;42.664;23.594;2023-02-12T05:10:09;96335.44;;;1.60;48.62
23172;BME280;11754;42.664;23.594;2023-02-12T05:12:35;96332.38;;;1.68;48.58
23172;BME280;11754;42.664;23.594;2023-02-12T05:15:00;96333.50;;;1.78;48.51
23172;BME280;11754;42.664;23.594;2023-02-12T05:17:26;96338.59;;;1.94;48.17
23172;BME280;11754;42.664;23.594;2023-02-12T05:19:51;96339.06;;;2.01;47.90
23172;BME280;11754;42.664;23.594;2023-02-12T05:22:32;96340.03;;;2.00;48.06
23172;BME280;11754;42.664;23.594;2023-02-12T05:24:57;96343.44;;;2.00;48.23
23172;BME280;11754;42.664;23.594;2023-02-12T05:27:23;96345.13;;;2.01;48.26
23172;BME280;11754;42.664;23.594;2023-02-12T05:29:48;96353.09;;;2.12;47.89
23172;BME280;11754;42.664;23.594;2023-02-12T05:32:13;96348.84;;;2.11;47.97
23172;BME280;11754;42.664;23.594;2023-02-12T05:54:49;96385.59;;;1.62;48.90
23172;BME280;11754;42.664;23.594;2023-02-12T05:57:14;96388.16;;;1.48;49.43
23172;BME280;11754;42.664;23.594;2023-02-12T05:59:39;96388.31;;;1.45;49.56
23172;BME280;11754;42.664;23.594;2023-02-12T06:02:05;96382.53;;;1.40;49.90
23172;BME280;11754;42.664;23.594;2023-02-12T06:04:30;96389.81;;;1.49;49.97
23172;BME280;11754;42.664;23.594;2023-02-12T06:06:56;96383.78;;;1.49;50.51
23172;BME280;11754;42.664;23.594;2023-02-12T06:09:22;96388.50;;;1.42;50.20
23172;BME280;11754;42.664;23.594;2023-02-12T06:11:47;96385.94;;;1.56;50.20
23172;BME280;11754;42.664;23.594;2023-02-12T06:14:15;96392.06;;;1.55;50.51
23172;BME280;11754;42.664;23.594;2023-02-12T06:16:47;96390.78;;;1.62;50.12
23172;BME280;11754;42.664;23.594;2023-02-12T06:19:14;96397.59;;;1.79;50.06
23172;BME280;11754;42.664;23.594;2023-02-12T06:21:39;96394.94;;;1.95;49.97
23172;BME280;11754;42.664;23.594;2023-02-12T06:24:05;96396.81;;;2.07;49.45
23172;BME280;11754;42.664;23.594;2023-02-12T06:26:30;96402.78;;;2.24;49.49
23172;BME280;11754;42.664;23.594;2023-02-12T06:28:56;96399.06;;;2.28;48.80
23172;BME280;11754;42.664;23.594;2023-02-12T06:31:24;96395.22;;;2.33;48.83
23172;BME280;11754;42.664;23.594;2023-02-12T06:33:51;96401.66;;;2.42;48.68
23172;BME280;11754;42.664;23.594;2023-02-12T06:36:17;96404.81;;;2.47;48.56
23172;BME280;11754;42.664;23.594;2023-02-12T06:38:43;96394.94;;;2.52;48.89
23172;BME280;11754;42.664;23.594;2023-02-12T06:41:08;96397.34;;;2.55;49.00
23172;BME280;11754;42.664;23.594;2023-02-12T06:43:35;96392.91;;;2.43;49.62
23172;BME280;11754;42.664;23.594;2023-02-12T06:46:09;96407.59;;;2.15;50.40
23172;BME280;11754;42.664;23.594;2023-02-12T06:48:35;96405.16;;;2.12;51.08
23172;BME280;11754;42.664;23.594;2023-02-12T06:51:19;96406.09;;;2.11;51.59
23172;BME280;11754;42.664;23.594;2023-02-12T06:53:48;96398.09;;;2.14;51.82
23172;BME280;11754;42.664;23.594;2023-02-12T06:56:14;96404.81;;;2.19;52.27
23172;BME280;11754;42.664;23.594;2023-02-12T06:58:42;96404.25;;;2.13;53.22
23172;BME280;11754;42.664;23.594;2023-02-12T07:01:27;96405.34;;;1.95;54.75
23172;BME280;11754;42.664;23.594;2023-02-12T07:03:58;96396.75;;;1.79;56.07
23172;BME280;11754;42.664;23.594;2023-02-12T07:06:24;96409.38;;;1.71;57.13
23172;BME280;11754;42.664;23.594;2023-02-12T07:08:50;96415.75;;;1.65;57.86
23172;BME280;11754;42.664;23.594;2023-02-12T07:11:17;96409.50;;;1.83;57.86
23172;BME280;11754;42.664;23.594;2023-02-12T07:13:44;96418.53;;;1.92;58.12
23172;BME280;11754;42.664;23.594;2023-02-12T07:16:12;96413.59;;;2.02;57.56
23172;BME280;11754;42.664;23.594;2023-02-12T07:18:38;96428.81;;;2.24;57.38
23172;BME280;11754;42.664;23.594;2023-02-12T07:21:06;96425.91;;;2.28;57.65
23172;BME280;11754;42.664;23.594;2023-02-12T07:23:32;96412.59;;;2.04;58.71
23172;BME280;11754;42.664;23.594;2023-02-12T07:25:59;96419.44;;;1.91;59.50
23172;BME280;11754;42.664;23.594;2023-02-12T07:28:26;96413.16;;;1.95;59.71
23172;BME280;11754;42.664;23.594;2023-02-12T07:30:52;96424.41;;;1.96;60.46
23172;BME280;11754;42.664;23.594;2023-02-12T07:33:18;96421.34;;;2.03;60.07
23172;BME280;11754;42.664;23.594;2023-02-12T07:35:43;96415.97;;;2.06;60.36
23172;BME280;11754;42.664;23.594;2023-02-12T07:38:09;96421.72;;;2.26;60.11
23172;BME280;11754;42.664;23.594;2023-02-12T07:44:02;96426.41;;;2.35;59.47
23172;BME280;11754;42.664;23.594;2023-02-12T07:46:33;96432.91;;;2.56;59.25
23172;BME280;11754;42.664;23.594;2023-02-12T07:49:00;96425.81;;;2.73;58.50
23172;BME280;11754;42.664;23.594;2023-02-12T07:51:26;96430.31;;;2.56;58.57
23172;BME280;11754;42.664;23.594;2023-02-12T07:53:52;96422.84;;;2.36;59.27
23172;BME280;11754;42.664;23.594;2023-02-12T07:56:29;96431.22;;;2.41;59.52
23172;BME280;11754;42.664;23.594;2023-02-12T07:58:58;96437.34;;;2.54;59.02
23172;BME280;11754;42.664;23.594;2023-02-12T08:04:45;96437.53;;;2.51;59.18
23172;BME280;11754;42.664;23.594;2023-02-12T08:07:10;96443.88;;;2.61;58.87
23172;BME280;11754;42.664;23.594;2023-02-12T08:09:36;96441.09;;;2.50;59.14
23172;BME280;11754;42.664;23.594;2023-02-12T08:12:01;96427.31;;;2.48;59.54
23172;BME280;11754;42.664;23.594;2023-02-12T08:14:27;96428.06;;;2.50;59.58
23172;BME280;11754;42.664;23.594;2023-02-12T08:16:53;96435.94;;;2.63;59.06
23172;BME280;11754;42.664;23.594;2023-02-12T08:19:18;96430.47;;;2.53;59.26
23172;BME280;11754;42.664;23.594;2023-02-12T08:21:44;96438.66;;;2.61;58.72
23172;BME280;11754;42.664;23.594;2023-02-12T08:24:12;96449.25;;;2.87;58.67
23172;BME280;11754;42.664;23.594;2023-02-12T08:26:38;96455.34;;;3.15;57.47
23172;BME280;11754;42.664;23.594;2023-02-12T08:29:13;96451.03;;;3.13;57.33
23172;BME280;11754;42.664;23.594;2023-02-12T08:31:41;96457.81;;;2.89;57.69
23172;BME280;11754;42.664;23.594;2023-02-12T08:34:16;96468.59;;;2.97;58.24
23172;BME280;11754;42.664;23.594;2023-02-12T08:36:42;96470.25;;;2.98;57.88
23172;BME280;11754;42.664;23.594;2023-02-12T08:39:08;96475.28;;;2.87;58.32
23172;BME280;11754;42.664;23.594;2023-02-12T08:41:34;96472.63;;;2.88;58.01
23172;BME280;11754;42.664;23.594;2023-02-12T08:44:02;96466.81;;;2.98;57.87
23172;BME280;11754;42.664;23.594;2023-02-12T08:46:33;96474.94;;;2.93;57.77
23172;BME280;11754;42.664;23.594;2023-02-12T08:49:21;96468.41;;;3.00;58.08
23172;BME280;11754;42.664;23.594;2023-02-12T08:51:47;96473.97;;;3.08;56.96
23172;BME280;11754;42.664;23.594;2023-02-12T08:54:19;96475.97;;;3.32;57.01
23172;BME280;11754;42.664;23.594;2023-02-12T08:56:45;96483.09;;;3.70;55.51
23172;BME280;11754;42.664;23.594;2023-02-12T08:59:11;96485.13;;;4.44;54.12
23172;BME280;11754;42.664;23.594;2023-02-12T09:01:38;96475.41;;;5.34;51.19
23172;BME280;11754;42.664;23.594;2023-02-12T09:04:11;96484.22;;;5.81;49.58
23172;BME280;11754;42.664;23.594;2023-02-12T09:06:37;96486.84;;;6.63;47.04
23172;BME280;11754;42.664;23.594;2023-02-12T09:09:03;96481.53;;;7.64;44.91
23172;BME280;11754;42.664;23.594;2023-02-12T09:11:29;96471.19;;;8.48;43.04
23172;BME280;11754;42.664;23.594;2023-02-12T09:14:00;96467.69;;;9.29;39.90
23172;BME280;11754;42.664;23.594;2023-02-12T09:16:27;96476.88;;;9.45;39.88
23172;BME280;11754;42.664;23.594;2023-02-12T09:18:53;96475.53;;;9.60;39.20
23172;BME280;11754;42.664;23.594;2023-02-12T09:21:19;96464.88;;;9.91;38.67
23172;BME280;11754;42.664;23.594;2023-02-12T09:23:45;96464.47;;;10.24;37.44
23172;BME280;11754;42.664;23.594;2023-02-12T09:26:14;96471.63;;;9.54;38.97
23172;BME280;11754;42.664;23.594;2023-02-12T09:28:40;96479.69;;;9.72;38.03
23172;BME280;11754;42.664;23.594;2023-02-12T09:31:11;96479.97;;;9.19;39.06
23172;BME280;11754;42.664;23.594;2023-02-12T09:33:37;96491.94;;;8.51;40.35
23172;BME280;11754;42.664;23.594;2023-02-12T09:36:05;96484.94;;;7.87;41.58
23172;BME280;11754;42.664;23.594;2023-02-12T09:38:31;96479.88;;;7.63;42.28
23172;BME280;11754;42.664;23.594;2023-02-12T10:01:16;96456.81;;;18.00;26.06
23172;BME280;11754;42.664;23.594;2023-02-12T10:03:43;96455.88;;;20.17;23.10
23172;BME280;11754;42.664;23.594;2023-02-12T10:06:29;96468.34;;;20.92;22.01
23172;BME280;11754;42.664;23.594;2023-02-12T10:08:58;96470.81;;;20.60;21.98
23172;BME280;11754;42.664;23.594;2023-02-12T10:17:02;96471.22;;;21.37;21.13
23172;BME280;11754;42.664;23.594;2023-02-12T10:44:30;96500.75;;;10.89;33.84
23172;BME280;11754;42.664;23.594;2023-02-12T10:46:55;96486.38;;;9.86;35.93
23172;BME280;11754;42.664;23.594;2023-02-12T10:49:21;96482.88;;;9.66;36.66
23172;BME280;11754;42.664;23.594;2023-02-12T11:01:16;96491.31;;;9.10;38.51
23172;BME280;11754;42.664;23.594;2023-02-12T11:03:41;96491.81;;;9.34;38.29
23172;BME280;11754;42.664;23.594;2023-02-12T11:08:37;96492.38;;;9.38;37.62
23172;BME280;11754;42.664;23.594;2023-02-12T11:11:24;96491.03;;;9.53;37.76
23172;BME280;11754;42.664;23.594;2023-02-12T11:13:59;96492.00;;;9.12;37.97
23172;BME280;11754;42.664;23.594;2023-02-12T11:16:30;96506.38;;;8.98;38.63
23172;BME280;11754;42.664;23.594;2023-02-12T11:18:57;96503.31;;;9.03;38.58
23172;BME280;11754;42.664;23.594;2023-02-12T11:21:23;96495.28;;;9.45;38.04
23172;BME280;11754;42.664;23.594;2023-02-12T11:23:49;96507.66;;;9.54;38.17
23172;BME280;11754;42.664;23.594;2023-02-12T11:29:04;96496.44;;;8.39;39.76
23172;BME280;11754;42.664;23.594;2023-02-12T11:31:41;96489.19;;;8.73;39.27
23172;BME280;11754;42.664;23.594;2023-02-12T11:36:41;96501.63;;;8.71;39.48
23172;BME280;11754;42.664;23.594;2023-02-12T11:39:17;96508.06;;;8.25;40.51
23172;BME280;11754;42.664;23.594;2023-02-12T11:41:43;96501.44;;;7.78;41.12
23172;BME280;11754;42.664;23.594;2023-02-12T11:46:52;96512.88;;;7.22;42.93
23172;BME280;11754;42.664;23.594;2023-02-12T11:49:28;96509.53;;;6.97;43.74
23172;BME280;11754;42.664;23.594;2023-02-12T11:51:56;96505.84;;;7.11;43.49
23172;BME280;11754;42.664;23.594;2023-02-12T11:54:24;96502.59;;;7.41;43.13
23172;BME280;11754;42.664;23.594;2023-02-12T11:56:51;96495.44;;;7.43;43.30
23172;BME280;11754;42.664;23.594;2023-02-12T11:59:26;96500.47;;;7.02;43.34
23172;BME280;11754;42.664;23.594;2023-02-12T12:01:54;96514.53;;;6.78;44.49
23172;BME280;11754;42.664;23.594;2023-02-12T12:04:26;96505.47;;;6.82;45.17
23172;BME280;11754;42.664;23.594;2023-02-12T12:07:08;96509.03;;;7.49;43.40
23172;BME280;11754;42.664;23.594;2023-02-12T12:09:41;96506.66;;;7.34;42.55
23172;BME280;11754;42.664;23.594;2023-02-12T12:12:15;96511.09;;;7.22;43.66
23172;BME280;11754;42.664;23.594;2023-02-12T12:20:32;96515.44;;;6.66;45.00
23172;BME280;11754;42.664;23.594;2023-02-12T12:23:08;96524.88;;;6.68;44.69
23172;BME280;11754;42.664;23.594;2023-02-12T12:26:00;96509.16;;;6.91;44.48
23172;BME280;11754;42.664;23.594;2023-02-12T12:28:40;96510.22;;;6.88;44.16
23172;BME280;11754;42.664;23.594;2023-02-12T12:31:16;96519.19;;;6.86;44.60
23172;BME280;11754;42.664;23.594;2023-02-12T12:33:45;96523.09;;;6.80;45.21
23172;BME280;11754;42.664;23.594;2023-02-12T12:41:35;96515.97;;;7.05;44.47
23172;BME280;11754;42.664;23.594;2023-02-12T12:44:50;96529.31;;;6.79;44.97
23172;BME280;11754;42.664;23.594;2023-02-12T12:47:25;96525.53;;;6.48;45.68
23172;BME280;11754;42.664;23.594;2023-02-12T13:17:04;96540.16;;;7.42;44.17
23172;BME280;11754;42.664;23.594;2023-02-12T13:19:51;96527.56;;;8.55;41.60
23172;BME280;11754;42.664;23.594;2023-02-12T13:22:34;96535.19;;;9.80;39.25
23172;BME280;11754;42.664;23.594;2023-02-12T13:25:13;96533.06;;;10.34;38.15
23172;BME280;11754;42.664;23.594;2023-02-12T13:27:41;96538.91;;;10.57;37.58
23172;BME280;11754;42.664;23.594;2023-02-12T13:30:19;96550.00;;;10.31;37.58
23172;BME280;11754;42.664;23.594;2023-02-12T13:33:04;96557.81;;;10.02;38.36
23172;BME280;11754;42.664;23.594;2023-02-12T13:35:32;96559.41;;;9.34;39.19
23172;BME280;11754;42.664;23.594;2023-02-12T13:37:59;96555.59;;;8.45;40.70
23172;BME280;11754;42.664;23.594;2023-02-12T13:40:28;96563.09;;;8.06;41.91
23172;BME280;11754;42.664;23.594;2023-02-12T13:48:43;96558.81;;;9.21;40.10
23172;BME280;11754;42.664;23.594;2023-02-12T13:51:29;96562.63;;;10.38;38.44
23172;BME280;11754;42.664;23.594;2023-02-12T13:56:51;96565.13;;;10.39;37.50
23172;BME280;11754;42.664;23.594;2023-02-12T14:01:58;96581.78;;;9.70;39.28
23172;BME280;11754;42.664;23.594;2023-02-12T14:04:28;96586.53;;;9.46;39.12
23172;BME280;11754;42.664;23.594;2023-02-12T14:07:04;96574.66;;;9.30;39.79
23172;BME280;11754;42.664;23.594;2023-02-12T14:09:40;96579.41;;;9.36;39.53
23172;BME280;11754;42.664;23.594;2023-02-12T14:12:13;96580.63;;;9.32;39.55
23172;BME280;11754;42.664;23.594;2023-02-12T14:14:44;96597.31;;;9.43;39.55
23172;BME280;11754;42.664;23.594;2023-02-12T14:27:41;96604.31;;;9.32;40.16
23172;BME280;11754;42.664;23.594;2023-02-12T14:37:56;96615.03;;;9.41;39.87
23172;BME280;11754;42.664;23.594;2023-02-12T14:43:01;96618.00;;;13.16;35.07
23172;BME280;11754;42.664;23.594;2023-02-12T14:45:32;96607.06;;;16.49;29.67
23172;BME280;11754;42.664;23.594;2023-02-12T14:47:59;96604.47;;;18.52;26.57
23172;BME280;11754;42.664;23.594;2023-02-12T14:50:29;96601.09;;;18.43;25.91
23172;BME280;11754;42.664;23.594;2023-02-12T14:53:04;96620.78;;;16.38;27.49
23172;BME280;11754;42.664;23.594;2023-02-12T14:55:32;96626.06;;;14.94;29.32
23172;BME280;11754;42.664;23.594;2023-02-12T14:58:02;96637.25;;;13.70;31.23
23172;BME280;11754;42.664;23.594;2023-02-12T15:00:33;96644.66;;;12.97;32.25
23172;BME280;11754;42.664;23.594;2023-02-12T15:03:01;96653.47;;;12.34;33.27
23172;BME280;11754;42.664;23.594;2023-02-12T15:05:36;96660.13;;;11.73;34.39
23172;BME280;11754;42.664;23.594;2023-02-12T15:08:30;96667.88;;;11.28;35.22
23172;BME280;11754;42.664;23.594;2023-02-12T15:11:02;96667.06;;;10.89;36.12
23172;BME280;11754;42.664;23.594;2023-02-12T15:13:45;96676.66;;;10.61;36.92
23172;BME280;11754;42.664;23.594;2023-02-12T15:16:28;96672.34;;;10.19;37.21
23172;BME280;11754;42.664;23.594;2023-02-12T15:19:01;96673.34;;;9.87;37.64
23172;BME280;11754;42.664;23.594;2023-02-12T15:21:31;96697.31;;;9.54;38.70
23172;BME280;11754;42.664;23.594;2023-02-12T15:24:04;96696.53;;;9.21;39.43
23172;BME280;11754;42.664;23.594;2023-02-12T15:26:33;96706.03;;;8.92;40.17
23172;BME280;11754;42.664;23.594;2023-02-12T15:28:59;96703.25;;;8.61;40.58
23172;BME280;11754;42.664;23.594;2023-02-12T15:31:27;96725.28;;;8.26;41.61
23172;BME280;11754;42.664;23.594;2023-02-12T15:33:55;96719.56;;;8.10;42.02
23172;BME280;11754;42.664;23.594;2023-02-12T15:36:23;96724.09;;;7.97;41.92
23172;BME280;11754;42.664;23.594;2023-02-12T15:38:52;96726.38;;;7.90;42.37
23172;BME280;11754;42.664;23.594;2023-02-12T15:43:52;96728.84;;;7.58;42.81
23172;BME280;11754;42.664;23.594;2023-02-12T15:46:18;96724.16;;;7.39;43.68
23172;BME280;11754;42.664;23.594;2023-02-12T15:48:43;96731.09;;;7.40;43.93
23172;BME280;11754;42.664;23.594;2023-02-12T15:51:31;96727.44;;;7.18;44.56
23172;BME280;11754;42.664;23.594;2023-02-12T15:53:59;96733.22;;;6.99;44.96
23172;BME280;11754;42.664;23.594;2023-02-12T15:56:28;96733.91;;;6.90;45.21
23172;BME280;11754;42.664;23.594;2023-02-12T15:58:56;96725.59;;;6.72;45.81
23172;BME280;11754;42.664;23.594;2023-02-12T16:01:26;96753.97;;;6.55;46.25
23172;BME280;11754;42.664;23.594;2023-02-12T16:03:57;96764.59;;;6.40;46.85
23172;BME280;11754;42.664;23.594;2023-02-12T16:06:24;96757.75;;;6.14;47.49
23172;BME280;11754;42.664;23.594;2023-02-12T16:09:01;96759.75;;;5.97;48.10
23172;BME280;11754;42.664;23.594;2023-02-12T16:11:27;96775.66;;;5.82;48.84
23172;BME280;11754;42.664;23.594;2023-02-12T16:14:06;96778.16;;;5.58;49.59
23172;BME280;11754;42.664;23.594;2023-02-12T16:16:51;96772.69;;;5.35;50.14
23172;BME280;11754;42.664;23.594;2023-02-12T16:21:43;96797.34;;;5.18;50.23
23172;BME280;11754;42.664;23.594;2023-02-12T16:24:24;96795.25;;;5.11;51.12
23172;BME280;11754;42.664;23.594;2023-02-12T16:26:50;96812.81;;;5.09;51.25
23172;BME280;11754;42.664;23.594;2023-02-12T16:29:17;96821.16;;;5.01;51.28
23172;BME280;11754;42.664;23.594;2023-02-12T16:31:54;96823.03;;;4.99;50.89
23172;BME280;11754;42.664;23.594;2023-02-12T16:34:35;96825.09;;;4.94;50.86
23172;BME280;11754;42.664;23.594;2023-02-12T16:42:17;96823.56;;;4.77;51.63
23172;BME280;11754;42.664;23.594;2023-02-12T16:44:44;96830.22;;;4.68;52.32
23172;BME280;11754;42.664;23.594;2023-02-12T16:47:18;96821.00;;;4.63;52.51
23172;BME280;11754;42.664;23.594;2023-02-12T16:49:56;96835.00;;;4.62;52.18
23172;BME280;11754;42.664;23.594;2023-02-12T16:52:37;96831.81;;;4.56;52.79
23172;BME280;11754;42.664;23.594;2023-02-12T16:55:05;96841.72;;;4.51;53.23
23172;BME280;11754;42.664;23.594;2023-02-12T16:57:32;96835.41;;;4.41;52.99
23172;BME280;11754;42.664;23.594;2023-02-12T16:59:57;96843.78;;;4.32;53.02
23172;BME280;11754;42.664;23.594;2023-02-12T17:02:22;96849.41;;;4.26;53.31
23172;BME280;11754;42.664;23.594;2023-02-12T17:04:48;96860.22;;;4.20;53.99
23172;BME280;11754;42.664;23.594;2023-02-12T17:07:19;96857.31;;;4.10;53.90
23172;BME280;11754;42.664;23.594;2023-02-12T17:09:45;96861.22;;;3.89;54.99
23172;BME280;11754;42.664;23.594;2023-02-12T17:12:10;96870.41;;;3.66;55.71
23172;BME280;11754;42.664;23.594;2023-02-12T17:14:36;96874.13;;;3.61;55.58
23172;BME280;11754;42.664;23.594;2023-02-12T17:17:01;96873.03;;;3.66;56.13
23172;BME280;11754;42.664;23.594;2023-02-12T17:19:27;96885.91;;;3.69;56.22
23172;BME280;11754;42.664;23.594;2023-02-12T17:21:52;96882.34;;;3.70;56.25
23172;BME280;11754;42.664;23.594;2023-02-12T17:24:21;96896.63;;;3.78;56.07
23172;BME280;11754;42.664;23.594;2023-02-12T17:26:48;96907.06;;;3.78;55.93
23172;BME280;11754;42.664;23.594;2023-02-12T17:29:15;96912.88;;;3.83;56.46
23172;BME280;11754;42.664;23.594;2023-02-12T17:31:41;96910.13;;;3.71;57.09
23172;BME280;11754;42.664;23.594;2023-02-12T17:34:06;96916.84;;;3.75;57.33
23172;BME280;11754;42.664;23.594;2023-02-12T17:36:32;96908.81;;;3.78;56.71
23172;BME280;11754;42.664;23.594;2023-02-12T17:38:58;96912.28;;;3.78;57.12
23172;BME280;11754;42.664;23.594;2023-02-12T17:41:24;96912.03;;;3.83;56.99
23172;BME280;11754;42.664;23.594;2023-02-12T17:43:49;96925.75;;;3.87;56.98
23172;BME280;11754;42.664;23.594;2023-02-12T17:46:20;96919.84;;;3.83;57.75
23172;BME280;11754;42.664;23.594;2023-02-12T17:48:46;96925.09;;;3.83;57.50
23172;BME280;11754;42.664;23.594;2023-02-12T17:51:11;96923.88;;;3.89;57.31
23172;BME280;11754;42.664;23.594;2023-02-12T17:53:38;96928.06;;;3.91;57.36
23172;BME280;11754;42.664;23.594;2023-02-12T17:56:04;96927.72;;;3.97;57.09
23172;BME280;11754;42.664;23.594;2023-02-12T17:58:30;96928.72;;;3.95;57.13
23172;BME280;11754;42.664;23.594;2023-02-12T18:00:55;96921.53;;;3.84;57.63
23172;BME280;11754;42.664;23.594;2023-02-12T18:03:21;96924.50;;;3.78;58.18
23172;BME280;11754;42.664;23.594;2023-02-12T18:05:46;96928.81;;;3.79;57.94
23172;BME280;11754;42.664;23.594;2023-02-12T18:08:11;96939.47;;;3.90;57.57
23172;BME280;11754;42.664;23.594;2023-02-12T18:10:43;96946.00;;;3.97;57.65
23172;BME280;11754;42.664;23.594;2023-02-12T18:13:09;96939.50;;;4.04;57.17
23172;BME280;11754;42.664;23.594;2023-02-12T18:15:35;96942.56;;;3.97;57.65
23172;BME280;11754;42.664;23.594;2023-02-12T18:18:01;96937.38;;;3.81;57.58
23172;BME280;11754;42.664;23.594;2023-02-12T18:20:26;96940.09;;;3.64;58.85
23172;BME280;11754;42.664;23.594;2023-02-12T18:22:52;96932.59;;;3.43;59.47
23172;BME280;11754;42.664;23.594;2023-02-12T18:25:17;96932.25;;;3.33;59.61